Sevenpersons, Canada
Current Conditions -  °F | °C
As of 2:00 AM on Friday 19 Dec 2014 (Local Time) from CYXH Reporting Station
Clear Clear  
Wind Chill: 12°   Ceiling: Unl
Heat Index: 21°   Visibility: 9mi
Dew Point: 21°   Wind: 8mph
Humidity: 100%   Direction: 210°SSW
Pressure: 29.84"   Gusts: NA
Location:  49.87°N, 110.9°W
Report Text: CYXH 190900Z AUTO 21007KT 9SM CLR M06/M06 A2984 RMK SLP144
Loading
Personal Weather Stations






























Interactive Weather Map New forecast layout! Learn more

10-Day Weather Forecast

Advertisements
Track Severe Weather on mobile